sensor_id;sensor_type;location;lat;lon;timestamp;P1;durP1;ratioP1;P2;durP2;ratioP2
79202;SDS011;68630;42.748;23.278;2023-11-21T00:01:31;52.98;;;21.07;;
79202;SDS011;68630;42.748;23.278;2023-11-21T00:03:59;54.33;;;20.23;;
79202;SDS011;68630;42.748;23.278;2023-11-21T00:06:27;55.05;;;19.00;;
79202;SDS011;68630;42.748;23.278;2023-11-21T00:08:56;48.33;;;19.15;;
79202;SDS011;68630;42.748;23.278;2023-11-21T00:11:23;47.23;;;19.48;;
79202;SDS011;68630;42.748;23.278;2023-11-21T00:13:54;45.08;;;17.77;;
79202;SDS011;68630;42.748;23.278;2023-11-21T00:16:22;43.48;;;18.52;;
79202;SDS011;68630;42.748;23.278;2023-11-21T00:18:51;47.43;;;17.15;;
79202;SDS011;68630;42.748;23.278;2023-11-21T00:21:18;39.85;;;16.75;;
79202;SDS011;68630;42.748;23.278;2023-11-21T00:23:46;40.30;;;16.32;;
79202;SDS011;68630;42.748;23.278;2023-11-21T00:26:13;43.40;;;17.10;;
79202;SDS011;68630;42.748;23.278;2023-11-21T00:28:41;42.73;;;16.97;;
79202;SDS011;68630;42.748;23.278;2023-11-21T00:31:09;38.20;;;15.38;;
79202;SDS011;68630;42.748;23.278;2023-11-21T00:33:36;36.88;;;14.73;;
79202;SDS011;68630;42.748;23.278;2023-11-21T00:36:04;43.38;;;16.05;;
79202;SDS011;68630;42.748;23.278;2023-11-21T00:38:33;35.38;;;14.55;;
79202;SDS011;68630;42.748;23.278;2023-11-21T00:41:01;36.33;;;14.38;;
79202;SDS011;68630;42.748;23.278;2023-11-21T00:43:29;30.30;;;13.48;;
79202;SDS011;68630;42.748;23.278;2023-11-21T00:45:56;26.68;;;12.23;;
79202;SDS011;68630;42.748;23.278;2023-11-21T00:48:24;33.67;;;13.65;;
79202;SDS011;68630;42.748;23.278;2023-11-21T00:50:51;38.42;;;14.35;;
79202;SDS011;68630;42.748;23.278;2023-11-21T00:53:21;38.50;;;13.93;;
79202;SDS011;68630;42.748;23.278;2023-11-21T00:55:48;36.10;;;14.28;;
79202;SDS011;68630;42.748;23.278;2023-11-21T00:58:17;37.75;;;14.53;;
79202;SDS011;68630;42.748;23.278;2023-11-21T01:00:45;39.30;;;14.45;;
79202;SDS011;68630;42.748;23.278;2023-11-21T01:03:14;40.30;;;14.07;;
79202;SDS011;68630;42.748;23.278;2023-11-21T01:05:41;31.70;;;13.83;;
79202;SDS011;68630;42.748;23.278;2023-11-21T01:08:09;34.67;;;13.78;;
79202;SDS011;68630;42.748;23.278;2023-11-21T01:10:37;29.07;;;13.25;;
79202;SDS011;68630;42.748;23.278;2023-11-21T01:13:05;33.95;;;13.58;;
79202;SDS011;68630;42.748;23.278;2023-11-21T01:15:37;34.50;;;13.85;;
79202;SDS011;68630;42.748;23.278;2023-11-21T01:18:02;37.65;;;14.45;;
79202;SDS011;68630;42.748;23.278;2023-11-21T01:20:29;35.78;;;13.83;;
79202;SDS011;68630;42.748;23.278;2023-11-21T01:22:58;28.55;;;14.00;;
79202;SDS011;68630;42.748;23.278;2023-11-21T01:25:25;36.80;;;14.87;;
79202;SDS011;68630;42.748;23.278;2023-11-21T01:27:56;31.37;;;12.85;;
79202;SDS011;68630;42.748;23.278;2023-11-21T01:30:23;31.05;;;12.78;;
79202;SDS011;68630;42.748;23.278;2023-11-21T01:32:53;33.50;;;13.18;;
79202;SDS011;68630;42.748;23.278;2023-11-21T01:35:34;35.73;;;14.47;;
79202;SDS011;68630;42.748;23.278;2023-11-21T01:37:49;35.92;;;13.62;;
79202;SDS011;68630;42.748;23.278;2023-11-21T01:40:17;31.50;;;13.03;;
79202;SDS011;68630;42.748;23.278;2023-11-21T01:42:45;30.85;;;13.68;;
79202;SDS011;68630;42.748;23.278;2023-11-21T01:45:14;32.38;;;13.55;;
79202;SDS011;68630;42.748;23.278;2023-11-21T01:47:42;32.33;;;12.07;;
79202;SDS011;68630;42.748;23.278;2023-11-21T01:50:15;33.65;;;12.63;;
79202;SDS011;68630;42.748;23.278;2023-11-21T01:52:46;27.48;;;13.58;;
79202;SDS011;68630;42.748;23.278;2023-11-21T01:55:14;28.30;;;12.90;;
79202;SDS011;68630;42.748;23.278;2023-11-21T01:57:45;29.80;;;13.40;;
79202;SDS011;68630;42.748;23.278;2023-11-21T02:00:13;29.77;;;12.43;;
79202;SDS011;68630;42.748;23.278;2023-11-21T02:02:45;33.63;;;15.68;;
79202;SDS011;68630;42.748;23.278;2023-11-21T02:05:14;34.33;;;16.80;;
79202;SDS011;68630;42.748;23.278;2023-11-21T02:07:44;35.75;;;17.17;;
79202;SDS011;68630;42.748;23.278;2023-11-21T02:10:15;33.48;;;15.75;;
79202;SDS011;68630;42.748;23.278;2023-11-21T02:12:44;30.72;;;14.63;;
79202;SDS011;68630;42.748;23.278;2023-11-21T02:15:13;33.88;;;15.05;;
79202;SDS011;68630;42.748;23.278;2023-11-21T02:17:43;37.05;;;16.15;;
79202;SDS011;68630;42.748;23.278;2023-11-21T02:20:11;37.98;;;16.40;;
79202;SDS011;68630;42.748;23.278;2023-11-21T02:22:50;36.15;;;18.12;;
79202;SDS011;68630;42.748;23.278;2023-11-21T02:25:20;43.35;;;18.90;;
79202;SDS011;68630;42.748;23.278;2023-11-21T02:27:48;41.98;;;19.30;;
79202;SDS011;68630;42.748;23.278;2023-11-21T02:30:16;44.50;;;17.75;;
79202;SDS011;68630;42.748;23.278;2023-11-21T02:32:44;38.80;;;18.57;;
79202;SDS011;68630;42.748;23.278;2023-11-21T02:35:12;42.35;;;17.20;;
79202;SDS011;68630;42.748;23.278;2023-11-21T02:37:39;35.80;;;15.03;;
79202;SDS011;68630;42.748;23.278;2023-11-21T02:40:08;37.93;;;15.58;;
79202;SDS011;68630;42.748;23.278;2023-11-21T02:42:39;36.10;;;15.13;;
79202;SDS011;68630;42.748;23.278;2023-11-21T02:45:07;39.60;;;15.35;;
79202;SDS011;68630;42.748;23.278;2023-11-21T02:47:36;32.48;;;15.13;;
79202;SDS011;68630;42.748;23.278;2023-11-21T02:50:04;32.08;;;15.48;;
79202;SDS011;68630;42.748;23.278;2023-11-21T02:52:34;36.88;;;15.40;;
79202;SDS011;68630;42.748;23.278;2023-11-21T02:55:02;36.50;;;15.88;;
79202;SDS011;68630;42.748;23.278;2023-11-21T02:57:30;34.67;;;15.48;;
79202;SDS011;68630;42.748;23.278;2023-11-21T02:59:59;34.75;;;14.85;;
79202;SDS011;68630;42.748;23.278;2023-11-21T03:02:26;34.33;;;16.15;;
79202;SDS011;68630;42.748;23.278;2023-11-21T03:04:54;33.20;;;14.80;;
79202;SDS011;68630;42.748;23.278;2023-11-21T03:07:21;42.90;;;16.90;;
79202;SDS011;68630;42.748;23.278;2023-11-21T03:09:49;42.50;;;17.48;;
79202;SDS011;68630;42.748;23.278;2023-11-21T03:12:17;40.67;;;17.20;;
79202;SDS011;68630;42.748;23.278;2023-11-21T03:14:45;43.92;;;18.10;;
79202;SDS011;68630;42.748;23.278;2023-11-21T03:17:13;35.92;;;15.90;;
79202;SDS011;68630;42.748;23.278;2023-11-21T03:19:41;36.65;;;16.50;;
79202;SDS011;68630;42.748;23.278;2023-11-21T03:22:09;43.08;;;17.90;;
79202;SDS011;68630;42.748;23.278;2023-11-21T03:24:37;40.38;;;19.20;;
79202;SDS011;68630;42.748;23.278;2023-11-21T03:27:05;39.80;;;18.50;;
79202;SDS011;68630;42.748;23.278;2023-11-21T03:29:33;36.55;;;16.48;;
79202;SDS011;68630;42.748;23.278;2023-11-21T03:32:01;39.05;;;17.48;;
79202;SDS011;68630;42.748;23.278;2023-11-21T03:34:28;37.17;;;14.43;;
79202;SDS011;68630;42.748;23.278;2023-11-21T03:36:56;42.08;;;14.35;;
79202;SDS011;68630;42.748;23.278;2023-11-21T03:39:24;40.08;;;15.48;;
79202;SDS011;68630;42.748;23.278;2023-11-21T03:41:51;31.10;;;14.33;;
79202;SDS011;68630;42.748;23.278;2023-11-21T03:44:21;30.85;;;13.65;;
79202;SDS011;68630;42.748;23.278;2023-11-21T03:46:48;31.23;;;14.50;;
79202;SDS011;68630;42.748;23.278;2023-11-21T03:49:16;31.93;;;14.45;;
79202;SDS011;68630;42.748;23.278;2023-11-21T03:51:43;37.20;;;14.58;;
79202;SDS011;68630;42.748;23.278;2023-11-21T03:54:11;31.35;;;14.30;;
79202;SDS011;68630;42.748;23.278;2023-11-21T03:56:40;31.85;;;14.18;;
79202;SDS011;68630;42.748;23.278;2023-11-21T03:59:07;31.73;;;14.05;;
79202;SDS011;68630;42.748;23.278;2023-11-21T04:01:35;34.75;;;15.40;;
79202;SDS011;68630;42.748;23.278;2023-11-21T04:04:03;32.58;;;12.90;;
79202;SDS011;68630;42.748;23.278;2023-11-21T04:06:31;35.75;;;14.87;;
79202;SDS011;68630;42.748;23.278;2023-11-21T04:08:58;29.75;;;12.78;;
79202;SDS011;68630;42.748;23.278;2023-11-21T04:11:26;32.88;;;13.28;;
79202;SDS011;68630;42.748;23.278;2023-11-21T04:13:55;28.40;;;13.55;;
79202;SDS011;68630;42.748;23.278;2023-11-21T04:16:23;34.33;;;14.60;;
79202;SDS011;68630;42.748;23.278;2023-11-21T04:18:50;31.27;;;14.63;;
79202;SDS011;68630;42.748;23.278;2023-11-21T04:21:18;31.25;;;14.55;;
79202;SDS011;68630;42.748;23.278;2023-11-21T04:23:46;35.03;;;13.70;;
79202;SDS011;68630;42.748;23.278;2023-11-21T04:26:14;33.78;;;13.83;;
79202;SDS011;68630;42.748;23.278;2023-11-21T04:28:41;29.45;;;14.38;;
79202;SDS011;68630;42.748;23.278;2023-11-21T04:31:09;31.07;;;13.98;;
79202;SDS011;68630;42.748;23.278;2023-11-21T04:33:36;35.13;;;14.07;;
79202;SDS011;68630;42.748;23.278;2023-11-21T04:36:04;36.03;;;13.38;;
79202;SDS011;68630;42.748;23.278;2023-11-21T04:38:32;32.20;;;13.88;;
79202;SDS011;68630;42.748;23.278;2023-11-21T04:41:02;35.83;;;14.53;;
79202;SDS011;68630;42.748;23.278;2023-11-21T04:43:30;29.75;;;13.72;;
79202;SDS011;68630;42.748;23.278;2023-11-21T04:45:58;33.90;;;13.88;;
79202;SDS011;68630;42.748;23.278;2023-11-21T04:48:27;33.88;;;13.80;;
79202;SDS011;68630;42.748;23.278;2023-11-21T04:50:55;32.60;;;14.38;;
79202;SDS011;68630;42.748;23.278;2023-11-21T04:53:22;33.78;;;15.72;;
79202;SDS011;68630;42.748;23.278;2023-11-21T04:55:50;45.55;;;17.55;;
79202;SDS011;68630;42.748;23.278;2023-11-21T04:58:18;47.33;;;15.53;;
79202;SDS011;68630;42.748;23.278;2023-11-21T05:00:46;40.50;;;16.45;;
79202;SDS011;68630;42.748;23.278;2023-11-21T05:03:13;42.98;;;16.30;;
79202;SDS011;68630;42.748;23.278;2023-11-21T05:05:41;44.65;;;16.62;;
79202;SDS011;68630;42.748;23.278;2023-11-21T05:08:09;46.65;;;17.73;;
79202;SDS011;68630;42.748;23.278;2023-11-21T05:10:37;56.45;;;20.90;;
79202;SDS011;68630;42.748;23.278;2023-11-21T05:13:04;52.23;;;23.00;;
79202;SDS011;68630;42.748;23.278;2023-11-21T05:15:36;53.73;;;23.45;;
79202;SDS011;68630;42.748;23.278;2023-11-21T05:18:05;46.95;;;22.22;;
79202;SDS011;68630;42.748;23.278;2023-11-21T05:20:32;61.70;;;22.15;;
79202;SDS011;68630;42.748;23.278;2023-11-21T05:23:00;50.20;;;22.50;;
79202;SDS011;68630;42.748;23.278;2023-11-21T05:25:28;58.87;;;23.27;;
79202;SDS011;68630;42.748;23.278;2023-11-21T05:27:57;50.03;;;21.07;;
79202;SDS011;68630;42.748;23.278;2023-11-21T05:30:26;51.60;;;22.42;;
79202;SDS011;68630;42.748;23.278;2023-11-21T05:32:54;55.88;;;22.25;;
79202;SDS011;68630;42.748;23.278;2023-11-21T05:35:24;51.95;;;22.07;;
79202;SDS011;68630;42.748;23.278;2023-11-21T05:37:52;53.45;;;20.25;;
79202;SDS011;68630;42.748;23.278;2023-11-21T05:40:20;48.52;;;19.17;;
79202;SDS011;68630;42.748;23.278;2023-11-21T05:42:47;54.73;;;19.62;;
79202;SDS011;68630;42.748;23.278;2023-11-21T05:45:16;49.95;;;20.40;;
79202;SDS011;68630;42.748;23.278;2023-11-21T05:47:44;58.10;;;20.45;;
79202;SDS011;68630;42.748;23.278;2023-11-21T05:50:13;75.85;;;23.32;;
79202;SDS011;68630;42.748;23.278;2023-11-21T05:52:45;75.83;;;23.85;;
79202;SDS011;68630;42.748;23.278;2023-11-21T05:55:13;60.45;;;22.70;;
79202;SDS011;68630;42.748;23.278;2023-11-21T05:57:42;56.23;;;22.22;;
79202;SDS011;68630;42.748;23.278;2023-11-21T06:00:11;54.05;;;20.15;;
79202;SDS011;68630;42.748;23.278;2023-11-21T06:02:51;52.40;;;20.23;;
79202;SDS011;68630;42.748;23.278;2023-11-21T06:05:19;54.70;;;18.73;;
79202;SDS011;68630;42.748;23.278;2023-11-21T06:07:51;45.50;;;19.27;;
79202;SDS011;68630;42.748;23.278;2023-11-21T06:10:20;51.40;;;18.65;;
79202;SDS011;68630;42.748;23.278;2023-11-21T06:12:49;53.80;;;21.25;;
79202;SDS011;68630;42.748;23.278;2023-11-21T06:15:17;59.35;;;22.62;;
79202;SDS011;68630;42.748;23.278;2023-11-21T06:17:49;56.50;;;23.07;;
79202;SDS011;68630;42.748;23.278;2023-11-21T06:20:20;52.73;;;20.52;;
79202;SDS011;68630;42.748;23.278;2023-11-21T06:22:49;48.58;;;19.55;;
79202;SDS011;68630;42.748;23.278;2023-11-21T06:25:17;47.65;;;18.27;;
79202;SDS011;68630;42.748;23.278;2023-11-21T06:27:45;39.00;;;17.75;;
79202;SDS011;68630;42.748;23.278;2023-11-21T06:30:14;41.25;;;18.70;;
79202;SDS011;68630;42.748;23.278;2023-11-21T06:32:44;46.48;;;18.62;;
79202;SDS011;68630;42.748;23.278;2023-11-21T06:35:11;42.23;;;18.45;;
79202;SDS011;68630;42.748;23.278;2023-11-21T06:37:39;53.60;;;19.37;;
79202;SDS011;68630;42.748;23.278;2023-11-21T06:40:07;41.15;;;18.32;;
79202;SDS011;68630;42.748;23.278;2023-11-21T06:42:35;35.17;;;15.60;;
79202;SDS011;68630;42.748;23.278;2023-11-21T06:45:04;36.53;;;16.32;;
79202;SDS011;68630;42.748;23.278;2023-11-21T06:47:32;42.90;;;17.07;;
79202;SDS011;68630;42.748;23.278;2023-11-21T06:50:00;39.53;;;16.62;;
79202;SDS011;68630;42.748;23.278;2023-11-21T06:52:27;33.02;;;14.30;;
79202;SDS011;68630;42.748;23.278;2023-11-21T06:54:55;38.98;;;16.97;;
79202;SDS011;68630;42.748;23.278;2023-11-21T06:57:23;43.55;;;20.08;;
79202;SDS011;68630;42.748;23.278;2023-11-21T06:59:50;51.58;;;22.45;;
79202;SDS011;68630;42.748;23.278;2023-11-21T07:02:20;58.13;;;24.47;;
79202;SDS011;68630;42.748;23.278;2023-11-21T07:04:48;58.58;;;22.93;;
79202;SDS011;68630;42.748;23.278;2023-11-21T07:07:15;50.52;;;22.05;;
79202;SDS011;68630;42.748;23.278;2023-11-21T07:09:44;52.30;;;23.45;;
79202;SDS011;68630;42.748;23.278;2023-11-21T07:12:13;48.17;;;22.73;;
79202;SDS011;68630;42.748;23.278;2023-11-21T07:14:41;48.78;;;23.00;;
79202;SDS011;68630;42.748;23.278;2023-11-21T07:17:13;45.52;;;21.23;;
79202;SDS011;68630;42.748;23.278;2023-11-21T07:19:42;45.65;;;21.48;;
79202;SDS011;68630;42.748;23.278;2023-11-21T07:22:10;48.78;;;20.15;;
79202;SDS011;68630;42.748;23.278;2023-11-21T07:24:39;51.05;;;22.32;;
79202;SDS011;68630;42.748;23.278;2023-11-21T07:27:07;59.13;;;22.40;;
79202;SDS011;68630;42.748;23.278;2023-11-21T07:29:37;53.68;;;22.65;;
79202;SDS011;68630;42.748;23.278;2023-11-21T07:32:06;53.63;;;22.58;;
79202;SDS011;68630;42.748;23.278;2023-11-21T07:34:35;54.55;;;22.77;;
79202;SDS011;68630;42.748;23.278;2023-11-21T07:37:05;57.65;;;22.35;;
79202;SDS011;68630;42.748;23.278;2023-11-21T07:39:32;52.55;;;21.87;;
79202;SDS011;68630;42.748;23.278;2023-11-21T07:42:01;51.40;;;20.70;;
79202;SDS011;68630;42.748;23.278;2023-11-21T07:44:29;46.53;;;19.23;;
79202;SDS011;68630;42.748;23.278;2023-11-21T07:46:57;40.25;;;18.50;;
79202;SDS011;68630;42.748;23.278;2023-11-21T07:49:25;38.28;;;17.32;;
79202;SDS011;68630;42.748;23.278;2023-11-21T07:51:52;37.15;;;17.52;;
79202;SDS011;68630;42.748;23.278;2023-11-21T07:54:25;44.85;;;18.73;;
79202;SDS011;68630;42.748;23.278;2023-11-21T07:56:51;45.70;;;17.42;;
79202;SDS011;68630;42.748;23.278;2023-11-21T07:59:25;42.53;;;17.80;;
79202;SDS011;68630;42.748;23.278;2023-11-21T08:01:51;43.42;;;18.00;;
79202;SDS011;68630;42.748;23.278;2023-11-21T08:04:21;34.38;;;17.55;;
79202;SDS011;68630;42.748;23.278;2023-11-21T08:06:49;47.45;;;17.10;;
79202;SDS011;68630;42.748;23.278;2023-11-21T08:09:21;40.75;;;17.15;;
79202;SDS011;68630;42.748;23.278;2023-11-21T08:11:50;33.45;;;17.23;;
79202;SDS011;68630;42.748;23.278;2023-11-21T08:14:25;30.95;;;17.52;;
79202;SDS011;68630;42.748;23.278;2023-11-21T08:16:52;34.15;;;15.70;;
79202;SDS011;68630;42.748;23.278;2023-11-21T08:19:22;29.30;;;14.65;;
79202;SDS011;68630;42.748;23.278;2023-11-21T08:21:57;30.10;;;15.15;;
79202;SDS011;68630;42.748;23.278;2023-11-21T08:24:28;42.23;;;16.12;;
79202;SDS011;68630;42.748;23.278;2023-11-21T08:27:05;39.30;;;15.68;;
79202;SDS011;68630;42.748;23.278;2023-11-21T08:29:45;32.80;;;15.25;;
79202;SDS011;68630;42.748;23.278;2023-11-21T08:32:19;33.85;;;15.75;;
79202;SDS011;68630;42.748;23.278;2023-11-21T08:34:39;30.23;;;15.20;;
79202;SDS011;68630;42.748;23.278;2023-11-21T08:37:07;40.15;;;17.10;;
79202;SDS011;68630;42.748;23.278;2023-11-21T08:39:44;27.15;;;15.13;;
79202;SDS011;68630;42.748;23.278;2023-11-21T08:43:26;41.35;;;15.18;;
79202;SDS011;68630;42.748;23.278;2023-11-21T08:45:02;34.45;;;15.20;;
79202;SDS011;68630;42.748;23.278;2023-11-21T08:47:38;34.92;;;16.07;;
79202;SDS011;68630;42.748;23.278;2023-11-21T08:50:02;28.73;;;15.08;;
79202;SDS011;68630;42.748;23.278;2023-11-21T08:52:31;33.60;;;17.00;;
79202;SDS011;68630;42.748;23.278;2023-11-21T08:57:44;38.25;;;15.95;;
79202;SDS011;68630;42.748;23.278;2023-11-21T09:00:19;29.55;;;15.90;;
79202;SDS011;68630;42.748;23.278;2023-11-21T09:02:50;39.25;;;16.45;;
79202;SDS011;68630;42.748;23.278;2023-11-21T09:05:26;31.42;;;15.45;;
79202;SDS011;68630;42.748;23.278;2023-11-21T09:07:53;29.95;;;15.38;;
79202;SDS011;68630;42.748;23.278;2023-11-21T09:10:21;44.25;;;15.25;;
79202;SDS011;68630;42.748;23.278;2023-11-21T09:12:51;39.73;;;16.37;;
79202;SDS011;68630;42.748;23.278;2023-11-21T09:17:58;38.30;;;17.65;;
79202;SDS011;68630;42.748;23.278;2023-11-21T09:20:28;33.38;;;16.70;;
79202;SDS011;68630;42.748;23.278;2023-11-21T09:22:54;39.42;;;16.55;;
79202;SDS011;68630;42.748;23.278;2023-11-21T09:25:25;43.92;;;16.52;;
79202;SDS011;68630;42.748;23.278;2023-11-21T09:28:15;44.80;;;16.87;;
79202;SDS011;68630;42.748;23.278;2023-11-21T09:30:37;35.52;;;16.40;;
79202;SDS011;68630;42.748;23.278;2023-11-21T09:32:59;40.05;;;16.75;;
79202;SDS011;68630;42.748;23.278;2023-11-21T09:35:44;48.25;;;16.50;;
79202;SDS011;68630;42.748;23.278;2023-11-21T09:38:03;33.00;;;16.77;;
79202;SDS011;68630;42.748;23.278;2023-11-21T09:40:58;30.37;;;15.95;;
79202;SDS011;68630;42.748;23.278;2023-11-21T09:43:24;38.67;;;16.52;;
79202;SDS011;68630;42.748;23.278;2023-11-21T09:46:00;32.80;;;16.35;;
79202;SDS011;68630;42.748;23.278;2023-11-21T09:48:36;46.15;;;17.90;;
79202;SDS011;68630;42.748;23.278;2023-11-21T09:51:14;37.75;;;16.90;;
79202;SDS011;68630;42.748;23.278;2023-11-21T09:53:44;43.52;;;17.73;;
79202;SDS011;68630;42.748;23.278;2023-11-21T09:58:53;41.30;;;16.95;;
79202;SDS011;68630;42.748;23.278;2023-11-21T10:01:48;41.90;;;18.00;;
79202;SDS011;68630;42.748;23.278;2023-11-21T10:04:08;51.68;;;19.90;;
79202;SDS011;68630;42.748;23.278;2023-11-21T10:06:39;52.30;;;21.47;;
79202;SDS011;68630;42.748;23.278;2023-11-21T10:09:09;44.77;;;19.12;;
79202;SDS011;68630;42.748;23.278;2023-11-21T10:11:41;43.20;;;20.25;;
79202;SDS011;68630;42.748;23.278;2023-11-21T10:14:15;40.63;;;18.87;;
79202;SDS011;68630;42.748;23.278;2023-11-21T10:16:46;48.15;;;19.55;;
79202;SDS011;68630;42.748;23.278;2023-11-21T10:19:19;47.53;;;20.75;;
79202;SDS011;68630;42.748;23.278;2023-11-21T10:21:49;46.58;;;20.97;;
79202;SDS011;68630;42.748;23.278;2023-11-21T10:24:22;42.03;;;21.25;;
79202;SDS011;68630;42.748;23.278;2023-11-21T10:26:49;42.75;;;20.77;;
79202;SDS011;68630;42.748;23.278;2023-11-21T10:29:21;47.75;;;21.07;;
79202;SDS011;68630;42.748;23.278;2023-11-21T10:32:09;48.17;;;21.23;;
79202;SDS011;68630;42.748;23.278;2023-11-21T10:34:39;50.12;;;21.50;;
79202;SDS011;68630;42.748;23.278;2023-11-21T10:37:19;49.30;;;23.42;;
79202;SDS011;68630;42.748;23.278;2023-11-21T10:39:51;48.75;;;25.12;;
79202;SDS011;68630;42.748;23.278;2023-11-21T10:42:22;53.68;;;23.85;;
79202;SDS011;68630;42.748;23.278;2023-11-21T10:49:57;58.05;;;25.62;;
79202;SDS011;68630;42.748;23.278;2023-11-21T10:52:33;48.55;;;23.62;;
79202;SDS011;68630;42.748;23.278;2023-11-21T10:55:21;59.00;;;25.62;;
79202;SDS011;68630;42.748;23.278;2023-11-21T10:57:54;58.45;;;26.60;;
79202;SDS011;68630;42.748;23.278;2023-11-21T11:00:26;60.90;;;26.48;;
79202;SDS011;68630;42.748;23.278;2023-11-21T11:02:53;50.88;;;26.73;;
79202;SDS011;68630;42.748;23.278;2023-11-21T11:05:31;52.90;;;27.52;;
79202;SDS011;68630;42.748;23.278;2023-11-21T11:08:04;63.00;;;27.77;;
79202;SDS011;68630;42.748;23.278;2023-11-21T11:10:37;52.13;;;24.92;;
79202;SDS011;68630;42.748;23.278;2023-11-21T11:15:51;62.85;;;28.17;;
79202;SDS011;68630;42.748;23.278;2023-11-21T11:35:17;57.85;;;24.27;;
79202;SDS011;68630;42.748;23.278;2023-11-21T11:37:45;64.42;;;22.82;;
79202;SDS011;68630;42.748;23.278;2023-11-21T11:40:16;54.23;;;22.62;;
79202;SDS011;68630;42.748;23.278;2023-11-21T11:42:57;46.73;;;21.97;;
79202;SDS011;68630;42.748;23.278;2023-11-21T11:45:34;60.38;;;21.87;;
79202;SDS011;68630;42.748;23.278;2023-11-21T11:48:05;51.05;;;21.42;;
79202;SDS011;68630;42.748;23.278;2023-11-21T11:50:33;57.00;;;19.37;;
79202;SDS011;68630;42.748;23.278;2023-11-21T11:53:13;45.92;;;20.62;;
79202;SDS011;68630;42.748;23.278;2023-11-21T11:58:22;58.38;;;24.75;;
79202;SDS011;68630;42.748;23.278;2023-11-21T12:06:06;46.23;;;21.05;;
79202;SDS011;68630;42.748;23.278;2023-11-21T12:08:46;49.88;;;21.10;;
79202;SDS011;68630;42.748;23.278;2023-11-21T12:13:53;41.80;;;21.15;;
79202;SDS011;68630;42.748;23.278;2023-11-21T12:22:46;44.18;;;22.15;;
79202;SDS011;68630;42.748;23.278;2023-11-21T12:25:19;44.18;;;20.62;;
79202;SDS011;68630;42.748;23.278;2023-11-21T12:30:24;52.73;;;22.87;;
79202;SDS011;68630;42.748;23.278;2023-11-21T12:32:59;56.42;;;22.20;;
79202;SDS011;68630;42.748;23.278;2023-11-21T12:35:27;45.15;;;19.32;;
79202;SDS011;68630;42.748;23.278;2023-11-21T12:38:02;48.90;;;21.27;;
79202;SDS011;68630;42.748;23.278;2023-11-21T12:40:38;51.73;;;22.40;;
79202;SDS011;68630;42.748;23.278;2023-11-21T12:45:43;53.75;;;25.12;;
79202;SDS011;68630;42.748;23.278;2023-11-21T12:48:05;51.42;;;25.05;;
79202;SDS011;68630;42.748;23.278;2023-11-21T12:50:38;47.73;;;22.77;;
79202;SDS011;68630;42.748;23.278;2023-11-21T12:53:12;42.13;;;22.65;;
79202;SDS011;68630;42.748;23.278;2023-11-21T12:55:39;44.98;;;21.30;;
79202;SDS011;68630;42.748;23.278;2023-11-21T12:58:09;47.27;;;22.95;;
79202;SDS011;68630;42.748;23.278;2023-11-21T13:00:45;47.20;;;22.25;;
79202;SDS011;68630;42.748;23.278;2023-11-21T13:03:21;45.43;;;22.93;;
79202;SDS011;68630;42.748;23.278;2023-11-21T13:05:47;54.55;;;25.57;;
79202;SDS011;68630;42.748;23.278;2023-11-21T13:08:22;48.20;;;23.85;;
79202;SDS011;68630;42.748;23.278;2023-11-21T13:10:51;57.58;;;26.48;;
79202;SDS011;68630;42.748;23.278;2023-11-21T13:13:22;63.23;;;28.55;;
79202;SDS011;68630;42.748;23.278;2023-11-21T13:16:01;59.53;;;28.32;;
79202;SDS011;68630;42.748;23.278;2023-11-21T13:18:44;76.25;;;35.35;;
79202;SDS011;68630;42.748;23.278;2023-11-21T13:21:14;68.22;;;36.05;;
79202;SDS011;68630;42.748;23.278;2023-11-21T13:23:50;79.55;;;37.23;;
79202;SDS011;68630;42.748;23.278;2023-11-21T13:26:19;66.37;;;31.65;;
79202;SDS011;68630;42.748;23.278;2023-11-21T13:28:53;72.87;;;31.05;;
79202;SDS011;68630;42.748;23.278;2023-11-21T13:31:23;51.83;;;25.15;;
79202;SDS011;68630;42.748;23.278;2023-11-21T13:33:55;44.75;;;23.22;;
79202;SDS011;68630;42.748;23.278;2023-11-21T13:36:39;55.30;;;25.43;;
79202;SDS011;68630;42.748;23.278;2023-11-21T13:39:08;58.42;;;25.48;;
79202;SDS011;68630;42.748;23.278;2023-11-21T13:41:37;48.60;;;22.22;;
79202;SDS011;68630;42.748;23.278;2023-11-21T13:44:18;51.60;;;22.07;;
79202;SDS011;68630;42.748;23.278;2023-11-21T13:49:13;46.10;;;22.30;;
79202;SDS011;68630;42.748;23.278;2023-11-21T13:51:44;42.78;;;20.37;;
79202;SDS011;68630;42.748;23.278;2023-11-21T13:54:14;53.70;;;23.22;;
79202;SDS011;68630;42.748;23.278;2023-11-21T13:56:56;50.30;;;24.45;;
79202;SDS011;68630;42.748;23.278;2023-11-21T13:59:19;47.88;;;23.83;;
79202;SDS011;68630;42.748;23.278;2023-11-21T14:01:56;42.17;;;21.90;;
79202;SDS011;68630;42.748;23.278;2023-11-21T14:04:28;48.10;;;23.30;;
79202;SDS011;68630;42.748;23.278;2023-11-21T14:07:02;44.20;;;22.17;;
79202;SDS011;68630;42.748;23.278;2023-11-21T14:09:31;47.35;;;21.20;;
79202;SDS011;68630;42.748;23.278;2023-11-21T14:12:03;50.83;;;22.30;;
79202;SDS011;68630;42.748;23.278;2023-11-21T14:14:35;46.13;;;22.77;;
79202;SDS011;68630;42.748;23.278;2023-11-21T14:17:06;47.17;;;23.92;;
79202;SDS011;68630;42.748;23.278;2023-11-21T14:19:43;49.05;;;23.85;;
79202;SDS011;68630;42.748;23.278;2023-11-21T14:22:15;56.60;;;23.20;;
79202;SDS011;68630;42.748;23.278;2023-11-21T14:24:46;46.90;;;20.05;;
79202;SDS011;68630;42.748;23.278;2023-11-21T14:27:17;53.52;;;21.73;;
79202;SDS011;68630;42.748;23.278;2023-11-21T14:29:45;47.78;;;23.05;;
79202;SDS011;68630;42.748;23.278;2023-11-21T14:32:18;46.77;;;23.90;;
79202;SDS011;68630;42.748;23.278;2023-11-21T14:34:48;49.38;;;23.83;;
79202;SDS011;68630;42.748;23.278;2023-11-21T14:37:16;40.05;;;21.97;;
79202;SDS011;68630;42.748;23.278;2023-11-21T14:39:45;44.08;;;22.65;;
79202;SDS011;68630;42.748;23.278;2023-11-21T14:42:14;46.50;;;23.35;;
79202;SDS011;68630;42.748;23.278;2023-11-21T14:44:44;50.98;;;23.25;;
79202;SDS011;68630;42.748;23.278;2023-11-21T14:47:20;50.52;;;25.27;;
79202;SDS011;68630;42.748;23.278;2023-11-21T14:49:51;52.88;;;23.25;;
79202;SDS011;68630;42.748;23.278;2023-11-21T14:52:22;78.52;;;35.92;;
79202;SDS011;68630;42.748;23.278;2023-11-21T14:54:54;126.30;;;48.40;;
79202;SDS011;68630;42.748;23.278;2023-11-21T14:57:23;113.88;;;42.55;;
79202;SDS011;68630;42.748;23.278;2023-11-21T15:00:02;117.65;;;46.02;;
79202;SDS011;68630;42.748;23.278;2023-11-21T15:02:29;106.50;;;40.48;;
79202;SDS011;68630;42.748;23.278;2023-11-21T15:05:12;84.83;;;36.53;;
79202;SDS011;68630;42.748;23.278;2023-11-21T15:07:41;94.20;;;35.65;;
79202;SDS011;68630;42.748;23.278;2023-11-21T15:10:13;89.85;;;36.60;;
79202;SDS011;68630;42.748;23.278;2023-11-21T15:12:44;71.75;;;32.10;;
79202;SDS011;68630;42.748;23.278;2023-11-21T15:15:15;70.52;;;31.12;;
79202;SDS011;68630;42.748;23.278;2023-11-21T15:17:44;81.65;;;33.18;;
79202;SDS011;68630;42.748;23.278;2023-11-21T15:20:46;62.90;;;27.87;;
79202;SDS011;68630;42.748;23.278;2023-11-21T15:22:59;57.15;;;27.58;;